Nevada, IA (50201)

9:55 AM CDT on March 25, 2017 (GMT -0500)
Rural Nevada Maxwell Blacktop | | Change Station

Elev 306 ft 41.98 °N, 93.41 °W | Updated 0 second ago

Rain
Rain
37.4 °F
Feels Like 29 °F
N
14.0
Wind Variable Wind from NNE

Today
High -- | Low -- °F
--% Chance of Precip.
Yesterday
High -- | Low -- °F
Precip. -- in
Pressure 29.99 in
Visibility 2.5 miles
Clouds Overcast 700 ft
Windchill 29 °F
Dew Point 37 °F
Humidity 98%
Rainfall 0.20 in
Snow Depth Not available.
7:07 AM 7:31 PM
Waning Crescent, 8% visible
SPECI KAMW 251440Z AUTO 03015G21KT 2 1/2SM RA BR OVC007 03/03 A2999 RMK AO2 CIG 005V011 P0008 T00330033
Pressure 29.99 in
Visibility 2.5 miles
Clouds Overcast 700 ft
Windchill 29 °F
Dew Point 37 °F
Humidity 98%
Rainfall 0.20 in
Snow Depth Not available.
7:07 AM 7:31 PM
Waning Crescent, 8% visible
SPECI KAMW 251440Z AUTO 03015G21KT 2 1/2SM RA BR OVC007 03/03 A2999 RMK AO2 CIG 005V011 P0008 T00330033

Get Severe Weather Alerts

Thanks for signing up!

Be on the lookout for a verification email in your inbox.

You'll start receiving the daily forecast at 8 AM.

×

10-Day Weather Forecast

Almanac

Astronomy

Mar. 25, 2017 Rise Set
Actual Time
Civil Twilight
Nautical Twilight
Astronomical Twilight
Moon
Length of Visible Light
Length of Day
Tomorrow will be .
, % of the Moon is Illuminated

Today's Extremes

State Highs State Lows

Community

WunderPhotos

Upload Photos

1,962,540 photos uploaded!

WunderBlog® & News

Nearby

Air Quality

  Air Quality AQ Index Pollutant
Not available.

Snow Depth

Station Depth Elevation

Earthquake Activity

City Distance Mag. Time & Date
Minimum magnitude displayed is 2.5.

Earthquake Activity

City Distance Mag. Time & Date
Minimum magnitude displayed is 2.5.

Coastal Water Temperatures

Place Temperature

Stations

Nearby Weather Stations

Station Location Temp. Windchill Dew Point Humidity Wind Precip. Elev Updated Type
                   

Watches & Warnings

There are currently no watches in effect.